sensor_id;sensor_type;location;lat;lon;timestamp;temperature;humidity
32147;DHT22;32190;49.112;8.598;2023-03-29T00:05:32;12.90;49.00
32147;DHT22;32190;49.112;8.598;2023-03-29T00:11:25;12.80;49.10
32147;DHT22;32190;49.112;8.598;2023-03-29T00:17:17;12.70;49.20
32147;DHT22;32190;49.112;8.598;2023-03-29T00:23:07;12.60;49.40
32147;DHT22;32190;49.112;8.598;2023-03-29T00:29:13;12.50;49.60
32147;DHT22;32190;49.112;8.598;2023-03-29T00:35:04;12.40;50.20
32147;DHT22;32190;49.112;8.598;2023-03-29T00:40:55;12.40;50.00
32147;DHT22;32190;49.112;8.598;2023-03-29T00:46:48;12.40;50.30
32147;DHT22;32190;49.112;8.598;2023-03-29T00:52:49;12.30;50.50
32147;DHT22;32190;49.112;8.598;2023-03-29T01:05:06;12.20;51.00
32147;DHT22;32190;49.112;8.598;2023-03-29T01:11:07;12.10;50.90
32147;DHT22;32190;49.112;8.598;2023-03-29T01:17:00;12.10;51.30
32147;DHT22;32190;49.112;8.598;2023-03-29T01:23:11;12.00;50.90
32147;DHT22;32190;49.112;8.598;2023-03-29T01:29:11;12.00;51.20
32147;DHT22;32190;49.112;8.598;2023-03-29T01:35:12;12.00;51.10
32147;DHT22;32190;49.112;8.598;2023-03-29T01:41:05;12.00;51.20
32147;DHT22;32190;49.112;8.598;2023-03-29T01:53:53;12.00;51.30
32147;DHT22;32190;49.112;8.598;2023-03-29T01:59:45;12.00;51.30
32147;DHT22;32190;49.112;8.598;2023-03-29T02:05:38;12.00;51.00
32147;DHT22;32190;49.112;8.598;2023-03-29T02:11:29;11.90;51.10
32147;DHT22;32190;49.112;8.598;2023-03-29T02:17:23;11.90;51.10
32147;DHT22;32190;49.112;8.598;2023-03-29T02:23:22;11.90;51.40
32147;DHT22;32190;49.112;8.598;2023-03-29T02:29:14;11.80;51.60
32147;DHT22;32190;49.112;8.598;2023-03-29T02:35:13;11.80;51.40
32147;DHT22;32190;49.112;8.598;2023-03-29T02:41:06;11.80;51.60
32147;DHT22;32190;49.112;8.598;2023-03-29T02:47:13;11.80;51.50
32147;DHT22;32190;49.112;8.598;2023-03-29T02:53:16;11.80;51.40
32147;DHT22;32190;49.112;8.598;2023-03-29T02:59:08;11.80;51.60
32147;DHT22;32190;49.112;8.598;2023-03-29T03:04:59;11.90;51.40
32147;DHT22;32190;49.112;8.598;2023-03-29T03:10:49;11.90;51.30
32147;DHT22;32190;49.112;8.598;2023-03-29T03:16:40;12.00;51.40
32147;DHT22;32190;49.112;8.598;2023-03-29T03:22:31;12.00;51.20
32147;DHT22;32190;49.112;8.598;2023-03-29T03:28:22;12.00;51.20
32147;DHT22;32190;49.112;8.598;2023-03-29T03:34:13;12.00;51.30
32147;DHT22;32190;49.112;8.598;2023-03-29T03:40:07;12.00;51.20
32147;DHT22;32190;49.112;8.598;2023-03-29T03:45:58;12.00;51.30
32147;DHT22;32190;49.112;8.598;2023-03-29T03:51:49;12.00;51.20
32147;DHT22;32190;49.112;8.598;2023-03-29T03:57:40;12.00;51.20
32147;DHT22;32190;49.112;8.598;2023-03-29T04:03:31;12.00;51.20
32147;DHT22;32190;49.112;8.598;2023-03-29T04:09:21;12.00;51.20
32147;DHT22;32190;49.112;8.598;2023-03-29T04:15:12;12.00;51.20
32147;DHT22;32190;49.112;8.598;2023-03-29T04:21:03;12.00;51.20
32147;DHT22;32190;49.112;8.598;2023-03-29T04:26:54;12.00;51.20
32147;DHT22;32190;49.112;8.598;2023-03-29T04:32:44;12.00;51.20
32147;DHT22;32190;49.112;8.598;2023-03-29T04:38:35;11.90;51.20
32147;DHT22;32190;49.112;8.598;2023-03-29T04:44:39;11.90;51.20
32147;DHT22;32190;49.112;8.598;2023-03-29T04:50:44;11.90;51.40
32147;DHT22;32190;49.112;8.598;2023-03-29T04:56:35;11.90;51.40
32147;DHT22;32190;49.112;8.598;2023-03-29T05:02:26;11.90;51.30
32147;DHT22;32190;49.112;8.598;2023-03-29T05:08:17;11.90;51.40
32147;DHT22;32190;49.112;8.598;2023-03-29T05:14:09;11.90;51.40
32147;DHT22;32190;49.112;8.598;2023-03-29T05:20:00;11.90;51.40
32147;DHT22;32190;49.112;8.598;2023-03-29T05:25:51;11.90;51.50
32147;DHT22;32190;49.112;8.598;2023-03-29T05:31:43;11.90;51.50
32147;DHT22;32190;49.112;8.598;2023-03-29T05:37:34;11.90;51.50
32147;DHT22;32190;49.112;8.598;2023-03-29T05:43:24;11.90;51.50
32147;DHT22;32190;49.112;8.598;2023-03-29T05:49:15;11.90;51.60
32147;DHT22;32190;49.112;8.598;2023-03-29T05:55:06;11.90;51.60
32147;DHT22;32190;49.112;8.598;2023-03-29T06:00:57;11.90;51.80
32147;DHT22;32190;49.112;8.598;2023-03-29T06:06:49;11.80;51.90
32147;DHT22;32190;49.112;8.598;2023-03-29T06:12:40;11.80;52.00
32147;DHT22;32190;49.112;8.598;2023-03-29T06:18:31;11.80;52.00
32147;DHT22;32190;49.112;8.598;2023-03-29T06:24:22;11.80;52.00
32147;DHT22;32190;49.112;8.598;2023-03-29T06:30:14;11.80;52.00
32147;DHT22;32190;49.112;8.598;2023-03-29T06:36:06;11.80;52.10
32147;DHT22;32190;49.112;8.598;2023-03-29T06:41:56;11.90;52.80
32147;DHT22;32190;49.112;8.598;2023-03-29T06:47:47;11.90;52.20
32147;DHT22;32190;49.112;8.598;2023-03-29T06:53:38;11.90;52.10
32147;DHT22;32190;49.112;8.598;2023-03-29T06:59:28;12.00;52.00
32147;DHT22;32190;49.112;8.598;2023-03-29T07:05:19;12.00;52.00
32147;DHT22;32190;49.112;8.598;2023-03-29T07:11:13;12.10;52.00
32147;DHT22;32190;49.112;8.598;2023-03-29T07:17:03;12.00;51.90
32147;DHT22;32190;49.112;8.598;2023-03-29T07:22:55;12.10;51.90
32147;DHT22;32190;49.112;8.598;2023-03-29T07:28:46;12.10;51.90
32147;DHT22;32190;49.112;8.598;2023-03-29T07:34:38;12.20;52.00
32147;DHT22;32190;49.112;8.598;2023-03-29T07:40:28;12.20;52.10
32147;DHT22;32190;49.112;8.598;2023-03-29T07:46:20;12.20;52.10
32147;DHT22;32190;49.112;8.598;2023-03-29T07:52:10;12.20;52.10
32147;DHT22;32190;49.112;8.598;2023-03-29T07:58:01;12.30;52.10
32147;DHT22;32190;49.112;8.598;2023-03-29T08:03:53;12.30;52.20
32147;DHT22;32190;49.112;8.598;2023-03-29T08:09:44;12.40;52.30
32147;DHT22;32190;49.112;8.598;2023-03-29T08:15:36;12.40;52.10
32147;DHT22;32190;49.112;8.598;2023-03-29T08:21:31;12.40;52.10
32147;DHT22;32190;49.112;8.598;2023-03-29T08:27:21;12.50;52.10
32147;DHT22;32190;49.112;8.598;2023-03-29T08:33:12;12.60;52.10
32147;DHT22;32190;49.112;8.598;2023-03-29T08:39:03;12.70;52.00
32147;DHT22;32190;49.112;8.598;2023-03-29T08:51:21;12.80;52.10
32147;DHT22;32190;49.112;8.598;2023-03-29T08:57:23;13.00;52.40
32147;DHT22;32190;49.112;8.598;2023-03-29T09:03:28;13.10;52.20
32147;DHT22;32190;49.112;8.598;2023-03-29T09:09:24;13.20;52.10
32147;DHT22;32190;49.112;8.598;2023-03-29T09:15:21;13.40;52.00
32147;DHT22;32190;49.112;8.598;2023-03-29T09:21:25;13.50;52.00
32147;DHT22;32190;49.112;8.598;2023-03-29T09:27:26;13.70;52.00
32147;DHT22;32190;49.112;8.598;2023-03-29T09:39:26;14.00;51.70
32147;DHT22;32190;49.112;8.598;2023-03-29T09:45:17;14.20;51.50
32147;DHT22;32190;49.112;8.598;2023-03-29T09:51:08;14.40;51.40
32147;DHT22;32190;49.112;8.598;2023-03-29T09:57:00;14.70;51.20
32147;DHT22;32190;49.112;8.598;2023-03-29T10:02:51;14.90;50.70
32147;DHT22;32190;49.112;8.598;2023-03-29T10:08:49;15.00;50.10
32147;DHT22;32190;49.112;8.598;2023-03-29T10:14:44;15.10;49.90
32147;DHT22;32190;49.112;8.598;2023-03-29T10:20:37;15.30;49.40
32147;DHT22;32190;49.112;8.598;2023-03-29T10:26:36;15.40;49.40
32147;DHT22;32190;49.112;8.598;2023-03-29T10:32:35;15.60;49.50
32147;DHT22;32190;49.112;8.598;2023-03-29T10:38:28;15.70;49.30
32147;DHT22;32190;49.112;8.598;2023-03-29T10:44:34;15.70;49.30
32147;DHT22;32190;49.112;8.598;2023-03-29T10:50:32;15.90;48.50
32147;DHT22;32190;49.112;8.598;2023-03-29T10:56:36;16.00;48.80
32147;DHT22;32190;49.112;8.598;2023-03-29T11:02:57;16.20;48.90
32147;DHT22;32190;49.112;8.598;2023-03-29T11:09:00;16.40;48.10
32147;DHT22;32190;49.112;8.598;2023-03-29T11:15:14;16.60;48.30
32147;DHT22;32190;49.112;8.598;2023-03-29T11:53:06;17.10;47.40
32147;DHT22;32190;49.112;8.598;2023-03-29T12:06:22;17.40;46.00
32147;DHT22;32190;49.112;8.598;2023-03-29T12:12:40;17.60;45.80
32147;DHT22;32190;49.112;8.598;2023-03-29T12:18:43;17.70;44.70
32147;DHT22;32190;49.112;8.598;2023-03-29T12:38:56;18.20;44.90
32147;DHT22;32190;49.112;8.598;2023-03-29T12:45:11;18.30;44.50
32147;DHT22;32190;49.112;8.598;2023-03-29T12:51:35;18.40;45.20
32147;DHT22;32190;49.112;8.598;2023-03-29T12:58:05;18.40;45.00
32147;DHT22;32190;49.112;8.598;2023-03-29T13:04:32;18.40;44.90
32147;DHT22;32190;49.112;8.598;2023-03-29T13:10:38;18.40;45.10
32147;DHT22;32190;49.112;8.598;2023-03-29T13:16:33;18.40;45.20
32147;DHT22;32190;49.112;8.598;2023-03-29T13:35:03;18.60;45.10
32147;DHT22;32190;49.112;8.598;2023-03-29T13:53:31;18.60;45.80
32147;DHT22;32190;49.112;8.598;2023-03-29T13:59:51;18.60;45.90
32147;DHT22;32190;49.112;8.598;2023-03-29T14:05:54;18.60;46.50
32147;DHT22;32190;49.112;8.598;2023-03-29T14:11:46;18.60;46.60
32147;DHT22;32190;49.112;8.598;2023-03-29T14:17:39;18.60;46.80
32147;DHT22;32190;49.112;8.598;2023-03-29T14:23:36;18.60;46.80
32147;DHT22;32190;49.112;8.598;2023-03-29T14:29:33;18.60;46.90
32147;DHT22;32190;49.112;8.598;2023-03-29T14:35:30;18.60;46.90
32147;DHT22;32190;49.112;8.598;2023-03-29T14:41:21;18.60;46.60
32147;DHT22;32190;49.112;8.598;2023-03-29T14:47:25;18.60;47.10
32147;DHT22;32190;49.112;8.598;2023-03-29T14:53:19;18.80;47.00
32147;DHT22;32190;49.112;8.598;2023-03-29T15:05:31;19.00;47.00
32147;DHT22;32190;49.112;8.598;2023-03-29T15:11:25;19.10;46.60
32147;DHT22;32190;49.112;8.598;2023-03-29T15:17:31;19.20;46.70
32147;DHT22;32190;49.112;8.598;2023-03-29T15:23:25;19.40;46.80
32147;DHT22;32190;49.112;8.598;2023-03-29T15:29:23;19.50;46.70
32147;DHT22;32190;49.112;8.598;2023-03-29T15:35:24;19.70;46.70
32147;DHT22;32190;49.112;8.598;2023-03-29T15:41:15;19.80;46.30
32147;DHT22;32190;49.112;8.598;2023-03-29T15:47:09;19.90;46.20
32147;DHT22;32190;49.112;8.598;2023-03-29T15:53:01;19.90;45.70
32147;DHT22;32190;49.112;8.598;2023-03-29T15:58:51;20.00;46.00
32147;DHT22;32190;49.112;8.598;2023-03-29T16:04:42;20.00;46.10
32147;DHT22;32190;49.112;8.598;2023-03-29T16:10:32;20.00;45.80
32147;DHT22;32190;49.112;8.598;2023-03-29T16:16:24;20.00;45.60
32147;DHT22;32190;49.112;8.598;2023-03-29T16:22:14;19.90;45.80
32147;DHT22;32190;49.112;8.598;2023-03-29T16:28:06;20.00;45.90
32147;DHT22;32190;49.112;8.598;2023-03-29T16:33:58;19.90;45.90
32147;DHT22;32190;49.112;8.598;2023-03-29T16:39:48;19.90;46.00
32147;DHT22;32190;49.112;8.598;2023-03-29T16:45:39;19.90;46.10
32147;DHT22;32190;49.112;8.598;2023-03-29T16:51:29;19.80;46.20
32147;DHT22;32190;49.112;8.598;2023-03-29T16:57:20;19.80;46.40
32147;DHT22;32190;49.112;8.598;2023-03-29T17:03:11;19.80;46.50
32147;DHT22;32190;49.112;8.598;2023-03-29T17:09:02;19.80;46.60
32147;DHT22;32190;49.112;8.598;2023-03-29T17:14:54;19.70;46.70
32147;DHT22;32190;49.112;8.598;2023-03-29T17:20:45;19.70;46.80
32147;DHT22;32190;49.112;8.598;2023-03-29T17:26:35;19.70;46.90
32147;DHT22;32190;49.112;8.598;2023-03-29T17:32:27;19.60;47.00
32147;DHT22;32190;49.112;8.598;2023-03-29T17:38:18;19.60;47.10
32147;DHT22;32190;49.112;8.598;2023-03-29T17:44:08;19.50;47.20
32147;DHT22;32190;49.112;8.598;2023-03-29T17:49:59;19.50;47.30
32147;DHT22;32190;49.112;8.598;2023-03-29T17:55:51;19.40;47.40
32147;DHT22;32190;49.112;8.598;2023-03-29T18:01:41;19.40;47.50
32147;DHT22;32190;49.112;8.598;2023-03-29T18:07:32;19.30;47.50
32147;DHT22;32190;49.112;8.598;2023-03-29T18:13:23;19.30;47.60
32147;DHT22;32190;49.112;8.598;2023-03-29T18:19:14;19.30;47.70
32147;DHT22;32190;49.112;8.598;2023-03-29T18:25:06;19.20;47.80
32147;DHT22;32190;49.112;8.598;2023-03-29T18:30:57;19.10;47.90
32147;DHT22;32190;49.112;8.598;2023-03-29T18:36:47;19.10;48.00
32147;DHT22;32190;49.112;8.598;2023-03-29T18:42:39;19.00;48.10
32147;DHT22;32190;49.112;8.598;2023-03-29T18:48:30;19.00;48.20
32147;DHT22;32190;49.112;8.598;2023-03-29T18:54:22;18.90;48.20
32147;DHT22;32190;49.112;8.598;2023-03-29T19:00:13;18.90;48.30
32147;DHT22;32190;49.112;8.598;2023-03-29T19:06:05;18.90;48.50
32147;DHT22;32190;49.112;8.598;2023-03-29T19:11:56;18.80;48.50
32147;DHT22;32190;49.112;8.598;2023-03-29T19:17:47;18.80;48.60
32147;DHT22;32190;49.112;8.598;2023-03-29T19:23:38;18.80;48.70
32147;DHT22;32190;49.112;8.598;2023-03-29T19:29:29;18.70;48.70
32147;DHT22;32190;49.112;8.598;2023-03-29T19:35:22;18.70;48.80
32147;DHT22;32190;49.112;8.598;2023-03-29T19:41:13;18.70;49.00
32147;DHT22;32190;49.112;8.598;2023-03-29T19:47:15;18.70;49.00
32147;DHT22;32190;49.112;8.598;2023-03-29T19:53:06;18.60;49.20
32147;DHT22;32190;49.112;8.598;2023-03-29T19:58:57;18.60;49.10
32147;DHT22;32190;49.112;8.598;2023-03-29T20:05:15;18.50;49.20
32147;DHT22;32190;49.112;8.598;2023-03-29T20:11:07;18.50;49.20
32147;DHT22;32190;49.112;8.598;2023-03-29T20:16:59;18.50;49.30
32147;DHT22;32190;49.112;8.598;2023-03-29T20:22:50;18.40;49.40
32147;DHT22;32190;49.112;8.598;2023-03-29T20:28:43;18.40;49.40
32147;DHT22;32190;49.112;8.598;2023-03-29T20:34:33;18.30;49.50
32147;DHT22;32190;49.112;8.598;2023-03-29T20:40:24;18.30;49.60
32147;DHT22;32190;49.112;8.598;2023-03-29T20:46:15;18.20;49.70
32147;DHT22;32190;49.112;8.598;2023-03-29T20:52:16;18.10;49.70
32147;DHT22;32190;49.112;8.598;2023-03-29T20:58:08;18.10;49.80
32147;DHT22;32190;49.112;8.598;2023-03-29T21:03:59;18.00;49.80
32147;DHT22;32190;49.112;8.598;2023-03-29T21:09:52;17.90;49.80
32147;DHT22;32190;49.112;8.598;2023-03-29T21:15:45;17.90;49.80
32147;DHT22;32190;49.112;8.598;2023-03-29T21:21:36;17.90;49.90
32147;DHT22;32190;49.112;8.598;2023-03-29T21:27:36;17.90;50.00
32147;DHT22;32190;49.112;8.598;2023-03-29T21:33:27;17.80;50.10
32147;DHT22;32190;49.112;8.598;2023-03-29T21:39:17;17.80;50.00
32147;DHT22;32190;49.112;8.598;2023-03-29T21:45:08;17.70;50.00
32147;DHT22;32190;49.112;8.598;2023-03-29T21:50:59;17.80;50.00
32147;DHT22;32190;49.112;8.598;2023-03-29T22:02:40;17.70;50.00
32147;DHT22;32190;49.112;8.598;2023-03-29T22:08:31;17.70;50.00
32147;DHT22;32190;49.112;8.598;2023-03-29T22:14:22;17.70;50.00
32147;DHT22;32190;49.112;8.598;2023-03-29T22:20:13;17.70;50.00
32147;DHT22;32190;49.112;8.598;2023-03-29T22:26:06;17.60;49.90
32147;DHT22;32190;49.112;8.598;2023-03-29T22:31:57;17.60;49.80
32147;DHT22;32190;49.112;8.598;2023-03-29T22:37:47;17.60;49.90
32147;DHT22;32190;49.112;8.598;2023-03-29T22:43:38;17.60;49.80
32147;DHT22;32190;49.112;8.598;2023-03-29T22:49:29;17.60;49.70
32147;DHT22;32190;49.112;8.598;2023-03-29T22:55:19;17.60;49.80
32147;DHT22;32190;49.112;8.598;2023-03-29T23:01:11;17.60;49.60
32147;DHT22;32190;49.112;8.598;2023-03-29T23:07:01;17.50;50.10
32147;DHT22;32190;49.112;8.598;2023-03-29T23:12:52;17.50;49.70
32147;DHT22;32190;49.112;8.598;2023-03-29T23:18:42;17.50;49.40
32147;DHT22;32190;49.112;8.598;2023-03-29T23:24:33;17.50;49.60
32147;DHT22;32190;49.112;8.598;2023-03-29T23:30:24;17.50;49.40
32147;DHT22;32190;49.112;8.598;2023-03-29T23:36:16;17.60;49.60
32147;DHT22;32190;49.112;8.598;2023-03-29T23:42:07;17.60;49.50
32147;DHT22;32190;49.112;8.598;2023-03-29T23:47:57;17.70;49.50
32147;DHT22;32190;49.112;8.598;2023-03-29T23:53:48;17.60;49.50
32147;DHT22;32190;49.112;8.598;2023-03-29T23:59:39;17.70;49.40
